Wetterdaten: Woche 23.02.04 - 29.02.04 (KW9)
Datum Zeit Temperatur Luftfeuchte Luftdruck Regenmenge Wind Richtung Taupunkt Windchill
23.02.2004 00:00 2.1 C 97 % 1005.6 hPa 0.7 l/m 0.3 km/h (0 Bft) N-NO 1.8 C 2.1 C
23.02.2004 01:00 1.0 C 95 % 1005.6 hPa 0.7 l/m 1.7 km/h (1 Bft) NO 0.3 C 0.7 C
23.02.2004 02:00 0.3 C 96 % 1005.6 hPa 1.0 l/m 1.9 km/h (1 Bft) NO -0.3 C -0.2 C
23.02.2004 03:00 0.0 C 96 % 1005.9 hPa 2.0 l/m 0.1 km/h (0 Bft) NO -0.6 C 0.0 C
23.02.2004 04:00 -0.2 C 96 % 1006.6 hPa 2.4 l/m 0.0 km/h (0 Bft) N -0.7 C -0.2 C
23.02.2004 05:00 -0.4 C 98 % 1007.1 hPa 1.7 l/m 0.0 km/h (0 Bft) N -0.8 C -0.4 C
23.02.2004 06:00 -0.6 C 98 % 1007.6 hPa 3.1 l/m 0.0 km/h (0 Bft) N -0.9 C -0.6 C
23.02.2004 07:00 -0.7 C 98 % 1008.6 hPa 2.0 l/m 0.0 km/h (0 Bft) N -1.0 C -0.7 C
23.02.2004 08:00 -0.7 C 95 % 1009.7 hPa 1.4 l/m 0.0 km/h (0 Bft) N -1.5 C -0.7 C
23.02.2004 09:00 -0.4 C 92 % 1010.2 hPa 0.3 l/m 0.0 km/h (0 Bft) N -1.6 C -0.4 C
23.02.2004 10:00 -0.5 C 84 % 1011.3 hPa 0.0 l/m 0.0 km/h (0 Bft) N -3.0 C -0.5 C
23.02.2004 11:00 -0.2 C 75 % 1011.8 hPa 0.0 l/m 0.0 km/h (0 Bft) N -4.2 C -0.2 C
23.02.2004 12:00 0.2 C 69 % 1012.2 hPa 0.0 l/m 0.0 km/h (0 Bft) N -4.9 C 0.2 C
23.02.2004 13:00 0.4 C 69 % 1012.8 hPa 0.0 l/m 0.0 km/h (0 Bft) N -4.6 C 0.4 C
23.02.2004 14:00 0.8 C 71 % 1012.8 hPa 0.0 l/m 0.1 km/h (0 Bft) N -3.9 C 0.8 C
23.02.2004 15:00 0.5 C 71 % 1013.2 hPa 0.0 l/m 0.0 km/h (0 Bft) N -4.2 C 0.5 C
23.02.2004 16:00 -0.2 C 67 % 1013.9 hPa 0.0 l/m 0.0 km/h (0 Bft) N -5.5 C -0.2 C
23.02.2004 17:00 -1.4 C 69 % 1014.7 hPa 0.0 l/m 0.0 km/h (0 Bft) N -6.2 C -1.4 C
23.02.2004 18:00 -2.5 C 79 % 1015.6 hPa 0.0 l/m 0.0 km/h (0 Bft) N -5.7 C -2.5 C
23.02.2004 19:00 -4.2 C 82 % 1016.0 hPa 0.0 l/m 0.0 km/h (0 Bft) N -6.8 C -4.2 C
23.02.2004 20:00 -5.5 C 85 % 1017.0 hPa 0.0 l/m 0.0 km/h (0 Bft) N -7.5 C -5.5 C
23.02.2004 21:00 -6.8 C 85 % 1017.0 hPa 0.0 l/m 0.0 km/h (0 Bft) N -8.9 C -6.8 C
23.02.2004 22:00 -6.8 C 83 % 1017.0 hPa 0.0 l/m 0.0 km/h (0 Bft) N -9.1 C -6.8 C
23.02.2004 23:00 -5.9 C 85 % 1017.0 hPa 0.0 l/m 0.0 km/h (0 Bft) N -8.0 C -5.9 C
24.02.2004 00:00 -6.0 C 86 % 1017.0 hPa 0.0 l/m 0.0 km/h (0 Bft) N -8.0 C -6.0 C
24.02.2004 01:00 -6.3 C 85 % 1017.1 hPa 0.0 l/m 0.0 km/h (0 Bft) N -8.3 C -6.3 C
24.02.2004 02:00 -6.4 C 84 % 1017.0 hPa 0.0 l/m 0.0 km/h (0 Bft) N -8.6 C -6.4 C
24.02.2004 03:00 -6.1 C 85 % 1017.0 hPa 0.0 l/m 0.0 km/h (0 Bft) N -8.2 C -6.1 C
24.02.2004 04:00 -6.0 C 85 % 1017.0 hPa 0.0 l/m 0.0 km/h (0 Bft) N -8.0 C -6.0 C
24.02.2004 05:00 -5.4 C 87 % 1017.4 hPa 0.0 l/m 0.0 km/h (0 Bft) N -7.2 C -5.4 C
24.02.2004 06:00 -5.8 C 86 % 1018.1 hPa 1.4 l/m 0.0 km/h (0 Bft) N -7.7 C -5.8 C
24.02.2004 07:00 -5.6 C 86 % 1018.2 hPa 1.0 l/m 0.0 km/h (0 Bft) N -7.5 C -5.6 C
24.02.2004 08:00 -5.1 C 84 % 1019.1 hPa 0.0 l/m 0.0 km/h (0 Bft) N -7.4 C -5.1 C
24.02.2004 09:00 -4.0 C 80 % 1019.1 hPa 0.0 l/m 0.0 km/h (0 Bft) N -6.9 C -4.0 C
24.02.2004 10:00 -2.7 C 77 % 1019.1 hPa 0.0 l/m 0.0 km/h (0 Bft) N -6.2 C -2.7 C
24.02.2004 11:00 -1.5 C 76 % 1019.1 hPa 0.0 l/m 0.2 km/h (0 Bft) S-SO -5.1 C -1.5 C
24.02.2004 12:00 -1.0 C 71 % 1019.1 hPa 0.0 l/m 3.6 km/h (1 Bft) W -5.7 C -2.0 C
24.02.2004 13:00 -0.9 C 66 % 1018.3 hPa 0.0 l/m 5.4 km/h (1 Bft) W -6.4 C -2.6 C
24.02.2004 14:00 0.0 C 61 % 1017.8 hPa 0.0 l/m 6.5 km/h (2 Bft) W-NW -6.6 C -2.0 C
24.02.2004 15:00 0.1 C 59 % 1017.0 hPa 0.0 l/m 2.7 km/h (1 Bft) W-NW -7.0 C -0.8 C
24.02.2004 16:00 0.3 C 62 % 1017.0 hPa 0.0 l/m 3.1 km/h (1 Bft) W-NW -6.1 C -0.5 C
24.02.2004 17:00 -1.8 C 67 % 1016.9 hPa 0.0 l/m 1.1 km/h (0 Bft) W -7.0 C -1.9 C
24.02.2004 18:00 -4.3 C 76 % 1016.1 hPa 0.0 l/m 1.2 km/h (1 Bft) O-SO -7.9 C -4.6 C
24.02.2004 19:00 -5.9 C 82 % 1016.1 hPa 0.0 l/m 7.6 km/h (2 Bft) O-SO -8.5 C -9.3 C
24.02.2004 20:00 -7.0 C 83 % 1016.0 hPa 0.0 l/m 6.6 km/h (2 Bft) O -9.4 C -10.0 C
24.02.2004 21:00 -7.7 C 83 % 1016.0 hPa 0.0 l/m 6.9 km/h (2 Bft) O-SO -10.1 C -10.9 C
24.02.2004 22:00 -8.7 C 81 % 1016.0 hPa 0.0 l/m 4.1 km/h (1 Bft) O -11.3 C -10.3 C
24.02.2004 23:00 -8.8 C 83 % 1016.0 hPa 0.0 l/m 5.6 km/h (1 Bft) O-SO -11.2 C -11.1 C
25.02.2004 00:00 -9.7 C 82 % 1015.5 hPa 0.0 l/m 3.7 km/h (1 Bft) O -12.2 C -11.6 C
25.02.2004 01:00 -9.5 C 83 % 1014.9 hPa 0.0 l/m 3.1 km/h (1 Bft) O -11.9 C -10.9 C
25.02.2004 02:00 -7.7 C 86 % 1014.1 hPa 0.0 l/m 4.3 km/h (1 Bft) O-SO -9.7 C -9.3 C
25.02.2004 03:00 -7.0 C 88 % 1013.3 hPa 0.0 l/m 4.8 km/h (1 Bft) O-SO -8.7 C -9.0 C
25.02.2004 04:00 -6.8 C 89 % 1012.8 hPa 0.0 l/m 0.3 km/h (0 Bft) O -8.4 C -6.8 C
25.02.2004 05:00 -7.3 C 88 % 1012.5 hPa 0.0 l/m 4.6 km/h (1 Bft) O-SO -8.9 C -9.3 C
25.02.2004 06:00 -7.7 C 88 % 1011.8 hPa 0.0 l/m 7.2 km/h (2 Bft) O-SO -9.4 C -11.1 C
25.02.2004 07:00 -8.1 C 86 % 1011.8 hPa 0.0 l/m 6.8 km/h (2 Bft) SO -10.0 C -11.4 C
25.02.2004 08:00 -7.6 C 85 % 1012.8 hPa 0.0 l/m 1.5 km/h (1 Bft) O -9.8 C -8.2 C
25.02.2004 09:00 -6.4 C 78 % 1012.8 hPa 0.0 l/m 0.7 km/h (0 Bft) W -9.6 C -6.5 C
25.02.2004 10:00 -5.0 C 72 % 1012.1 hPa 0.0 l/m 5.4 km/h (1 Bft) O-SO -9.3 C -7.3 C
25.02.2004 11:00 -2.8 C 68 % 1011.8 hPa 0.0 l/m 9.4 km/h (2 Bft) SO -8.0 C -6.3 C
25.02.2004 12:00 -0.5 C 61 % 1011.2 hPa 0.0 l/m 10.4 km/h (2 Bft) O-SO -7.2 C -3.8 C
25.02.2004 13:00 1.9 C 57 % 1010.1 hPa 0.0 l/m 10.0 km/h (2 Bft) SO -5.8 C -0.9 C
25.02.2004 14:00 2.7 C 53 % 1009.5 hPa 0.0 l/m 7.1 km/h (2 Bft) SO -5.8 C 0.9 C
25.02.2004 15:00 3.3 C 52 % 1008.7 hPa 0.0 l/m 4.0 km/h (1 Bft) SO -5.7 C 2.5 C
25.02.2004 16:00 2.5 C 54 % 1008.3 hPa 0.0 l/m 4.5 km/h (1 Bft) SO -5.8 C 1.4 C
25.02.2004 17:00 0.9 C 59 % 1007.6 hPa 0.0 l/m 1.6 km/h (1 Bft) O -6.3 C 0.8 C
25.02.2004 18:00 -1.6 C 69 % 1007.6 hPa 0.0 l/m 4.0 km/h (1 Bft) O-SO -6.5 C -2.7 C
25.02.2004 19:00 -2.2 C 74 % 1007.6 hPa 0.0 l/m 7.6 km/h (2 Bft) O-SO -6.2 C -5.1 C
25.02.2004 20:00 -2.2 C 77 % 1007.8 hPa 0.0 l/m 8.2 km/h (2 Bft) O-SO -5.7 C -5.0 C
25.02.2004 21:00 -2.5 C 77 % 1007.6 hPa 0.0 l/m 3.0 km/h (1 Bft) O -5.9 C -3.3 C
25.02.2004 22:00 -2.7 C 81 % 1007.6 hPa 0.0 l/m 4.1 km/h (1 Bft) O -5.6 C -3.9 C
25.02.2004 23:00 -3.3 C 82 % 1007.6 hPa 0.0 l/m 1.2 km/h (1 Bft) O -5.9 C -3.7 C
26.02.2004 00:00 -3.5 C 85 % 1006.9 hPa 0.0 l/m 2.7 km/h (1 Bft) O -5.6 C -4.0 C
26.02.2004 01:00 -4.4 C 85 % 1006.6 hPa 0.0 l/m 1.4 km/h (1 Bft) O -6.6 C -4.8 C
26.02.2004 02:00 -4.3 C 87 % 1006.2 hPa 0.0 l/m 2.0 km/h (1 Bft) O -6.2 C -4.9 C
26.02.2004 03:00 -4.1 C 87 % 1005.6 hPa 0.0 l/m 3.6 km/h (1 Bft) O -5.9 C -5.5 C
26.02.2004 04:00 -3.9 C 86 % 1005.1 hPa 0.0 l/m 3.0 km/h (1 Bft) O -5.8 C -5.0 C
26.02.2004 05:00 -3.5 C 86 % 1004.6 hPa 0.0 l/m 1.1 km/h (1 Bft) O -5.5 C -3.9 C
26.02.2004 06:00 -3.2 C 87 % 1004.2 hPa 0.0 l/m 1.8 km/h (1 Bft) O -5.1 C -3.6 C
26.02.2004 07:00 -2.7 C 85 % 1003.5 hPa 0.0 l/m 4.1 km/h (1 Bft) O-SO -4.9 C -4.0 C
26.02.2004 08:00 -2.2 C 81 % 1003.5 hPa 0.0 l/m 3.9 km/h (1 Bft) O-SO -5.0 C -3.5 C
26.02.2004 09:00 -1.3 C 78 % 1003.5 hPa 0.0 l/m 3.9 km/h (1 Bft) SO -4.7 C -2.4 C
26.02.2004 10:00 -0.3 C 78 % 1003.5 hPa 0.0 l/m 3.5 km/h (1 Bft) O-SO -3.6 C -1.2 C
26.02.2004 11:00 0.4 C 79 % 1003.5 hPa 0.3 l/m 5.9 km/h (2 Bft) O-SO -2.9 C -1.4 C
26.02.2004 12:00 1.3 C 67 % 1003.3 hPa 0.0 l/m 11.2 km/h (2 Bft) W-NW -4.1 C -1.7 C
26.02.2004 13:00 1.5 C 62 % 1002.4 hPa 0.0 l/m 14.8 km/h (3 Bft) W-NW -4.9 C -2.5 C
26.02.2004 14:00 1.8 C 58 % 1001.7 hPa 0.0 l/m 18.6 km/h (3 Bft) NW -5.6 C -2.7 C
26.02.2004 15:00 1.1 C 58 % 1001.4 hPa 0.0 l/m 20.9 km/h (4 Bft) W-NW -6.1 C -3.9 C
26.02.2004 16:00 1.0 C 58 % 1001.4 hPa 0.0 l/m 14.0 km/h (3 Bft) W-NW -6.5 C -2.9 C
26.02.2004 17:00 0.2 C 59 % 1001.4 hPa 0.0 l/m 13.2 km/h (3 Bft) W-NW -6.8 C -3.8 C
26.02.2004 18:00 -0.4 C 63 % 1001.7 hPa 0.0 l/m 8.8 km/h (2 Bft) W-NW -6.6 C -3.3 C
26.02.2004 19:00 -0.9 C 70 % 1002.4 hPa 0.0 l/m 5.0 km/h (1 Bft) W-NW -5.7 C -2.5 C
26.02.2004 20:00 -1.2 C 68 % 1002.4 hPa 0.0 l/m 2.7 km/h (1 Bft) W -6.4 C -2.0 C
26.02.2004 21:00 -2.4 C 67 % 1002.4 hPa 0.0 l/m 1.7 km/h (1 Bft) W -7.7 C -3.0 C
26.02.2004 22:00 -3.3 C 71 % 1002.4 hPa 0.0 l/m 0.2 km/h (0 Bft) S -7.8 C -3.3 C
26.02.2004 23:00 -4.1 C 74 % 1002.4 hPa 0.0 l/m 3.7 km/h (1 Bft) S -8.1 C -5.6 C
27.02.2004 00:00 -4.5 C 76 % 1002.4 hPa 0.0 l/m 1.5 km/h (1 Bft) S-SO -8.2 C -5.0 C
27.02.2004 01:00 -4.7 C 76 % 1001.5 hPa 0.0 l/m 0.3 km/h (0 Bft) S-SO -8.3 C -4.7 C
27.02.2004 02:00 -6.1 C 77 % 1001.4 hPa 0.0 l/m 0.0 km/h (0 Bft) N -9.5 C -6.1 C
27.02.2004 03:00 -6.5 C 81 % 1000.4 hPa 0.0 l/m 0.0 km/h (0 Bft) N -9.1 C -6.5 C
27.02.2004 04:00 -5.9 C 82 % 1000.4 hPa 0.0 l/m 1.4 km/h (1 Bft) S-SO -8.5 C -5.9 C
27.02.2004 05:00 -5.7 C 80 % 1000.4 hPa 0.0 l/m 0.0 km/h (0 Bft) N -8.6 C -5.7 C
27.02.2004 06:00 -5.3 C 76 % 1000.4 hPa 0.0 l/m 0.0 km/h (0 Bft) N -8.9 C -5.3 C
27.02.2004 07:00 -5.3 C 75 % 1000.4 hPa 0.0 l/m 0.2 km/h (0 Bft) S-SO -9.1 C -5.3 C
27.02.2004 08:00 -4.5 C 73 % 1000.4 hPa 0.0 l/m 0.1 km/h (0 Bft) N -8.6 C -4.5 C
27.02.2004 09:00 -4.0 C 74 % 1000.4 hPa 0.3 l/m 0.3 km/h (0 Bft) W -7.9 C -4.1 C
27.02.2004 10:00 -2.6 C 67 % 1000.4 hPa 0.0 l/m 0.5 km/h (0 Bft) W -7.8 C -2.7 C
27.02.2004 11:00 -1.1 C 58 % 1000.4 hPa 0.0 l/m 0.3 km/h (0 Bft) W-NW -8.4 C -1.1 C
27.02.2004 12:00 0.8 C 47 % 1000.0 hPa 0.0 l/m 2.0 km/h (1 Bft) O -9.1 C 0.4 C
27.02.2004 13:00 1.4 C 41 % 999.3 hPa 0.0 l/m 3.9 km/h (1 Bft) O-SO -10.5 C 0.4 C
27.02.2004 14:00 0.8 C 40 % 999.3 hPa 0.0 l/m 0.1 km/h (0 Bft) O-SO -11.3 C 0.8 C
27.02.2004 15:00 0.7 C 42 % 999.3 hPa 0.0 l/m 0.0 km/h (0 Bft) N -10.8 C 0.7 C
27.02.2004 16:00 0.8 C 47 % 999.3 hPa 0.0 l/m 5.4 km/h (1 Bft) SO -9.3 C -0.8 C
27.02.2004 17:00 -0.2 C 53 % 999.3 hPa 0.0 l/m 8.1 km/h (2 Bft) O-SO -8.6 C -2.9 C
27.02.2004 18:00 -1.7 C 61 % 1000.1 hPa 0.0 l/m 8.3 km/h (2 Bft) O-SO -8.1 C -4.6 C
27.02.2004 19:00 -3.5 C 68 % 1000.4 hPa 0.0 l/m 9.1 km/h (2 Bft) O-SO -8.6 C -7.2 C
27.02.2004 20:00 -4.8 C 75 % 1000.4 hPa 0.0 l/m 8.3 km/h (2 Bft) O-SO -8.6 C -8.4 C
27.02.2004 21:00 -6.3 C 77 % 1000.5 hPa 0.0 l/m 6.9 km/h (2 Bft) O-SO -9.6 C -9.5 C
27.02.2004 22:00 -7.2 C 80 % 1000.8 hPa 0.0 l/m 5.9 km/h (2 Bft) O-SO -10.0 C -9.5 C
27.02.2004 23:00 -7.7 C 81 % 1001.1 hPa 0.0 l/m 2.4 km/h (1 Bft) O-SO -10.3 C -8.1 C
28.02.2004 00:00 -8.5 C 81 % 1001.4 hPa 0.0 l/m 5.1 km/h (1 Bft) O-SO -11.1 C -10.9 C
28.02.2004 01:00 -9.1 C 82 % 1001.4 hPa 0.0 l/m 5.9 km/h (2 Bft) O-SO -11.7 C -12.2 C
28.02.2004 02:00 -9.5 C 80 % 1001.4 hPa 0.0 l/m 3.5 km/h (1 Bft) O-SO -12.3 C -10.9 C
28.02.2004 03:00 -9.7 C 80 % 1001.4 hPa 0.0 l/m 3.1 km/h (1 Bft) O-SO -12.6 C -10.7 C
28.02.2004 04:00 -10.5 C 79 % 1001.4 hPa 0.0 l/m 2.5 km/h (1 Bft) O-SO -13.4 C -11.4 C
28.02.2004 05:00 -10.8 C 78 % 1001.4 hPa 0.0 l/m 3.6 km/h (1 Bft) O-SO -13.8 C -12.1 C
28.02.2004 06:00 -11.0 C 78 % 1001.9 hPa 0.0 l/m 1.4 km/h (1 Bft) O-SO -14.0 C -11.1 C
28.02.2004 07:00 -11.0 C 78 % 1002.4 hPa 0.0 l/m 2.9 km/h (1 Bft) O-SO -14.1 C -11.7 C
28.02.2004 08:00 -9.5 C 75 % 1003.3 hPa 0.0 l/m 2.6 km/h (1 Bft) O-SO -13.0 C -10.4 C
28.02.2004 09:00 -7.5 C 71 % 1003.6 hPa 0.0 l/m 3.0 km/h (1 Bft) SO -11.8 C -8.7 C
28.02.2004 10:00 -5.4 C 65 % 1004.5 hPa 0.0 l/m 1.0 km/h (0 Bft) SW -10.9 C -5.7 C
28.02.2004 11:00 -3.0 C 58 % 1004.5 hPa 0.0 l/m 2.8 km/h (1 Bft) SO -10.0 C -4.0 C
28.02.2004 12:00 0.2 C 49 % 1003.5 hPa 0.0 l/m 6.7 km/h (2 Bft) O-SO -9.3 C -2.0 C
28.02.2004 13:00 1.5 C 46 % 1003.5 hPa 0.0 l/m 10.8 km/h (2 Bft) O-SO -8.7 C -1.6 C
28.02.2004 14:00 2.6 C 39 % 1003.5 hPa 0.0 l/m 8.5 km/h (2 Bft) O-SO -10.0 C 0.2 C
28.02.2004 15:00 2.8 C 42 % 1003.5 hPa 0.0 l/m 10.8 km/h (2 Bft) O-SO -8.8 C -0.2 C
28.02.2004 16:00 1.6 C 46 % 1004.3 hPa 0.0 l/m 9.1 km/h (2 Bft) O-SO -8.6 C -1.0 C
28.02.2004 17:00 0.5 C 45 % 1004.6 hPa 0.0 l/m 6.5 km/h (2 Bft) SO -9.9 C -1.5 C
28.02.2004 18:00 -0.3 C 50 % 1005.6 hPa 0.0 l/m 5.1 km/h (1 Bft) SO -9.6 C -1.9 C
28.02.2004 19:00 -0.8 C 52 % 1006.3 hPa 0.0 l/m 4.8 km/h (1 Bft) SO -9.3 C -2.5 C
28.02.2004 20:00 -1.7 C 59 % 1007.1 hPa 0.0 l/m 3.3 km/h (1 Bft) SO -8.6 C -2.7 C
28.02.2004 21:00 -2.5 C 66 % 1007.7 hPa 0.0 l/m 1.5 km/h (1 Bft) SO -8.0 C -2.9 C
28.02.2004 22:00 -3.0 C 71 % 1008.7 hPa 0.0 l/m 0.5 km/h (0 Bft) SO -7.5 C -3.0 C
28.02.2004 23:00 -4.2 C 74 % 1008.7 hPa 0.0 l/m 0.1 km/h (0 Bft) N -8.1 C -4.2 C
29.02.2004 00:00 -4.7 C 79 % 1008.7 hPa 0.0 l/m 1.9 km/h (1 Bft) SO -7.8 C -5.1 C
29.02.2004 01:00 -4.8 C 80 % 1009.3 hPa 0.0 l/m 0.6 km/h (0 Bft) SO -7.8 C -4.9 C
29.02.2004 02:00 -5.6 C 82 % 1009.7 hPa 0.0 l/m 0.7 km/h (0 Bft) SO -8.1 C -5.7 C
29.02.2004 03:00 -6.3 C 84 % 1009.7 hPa 0.0 l/m 0.7 km/h (0 Bft) SO -8.6 C -6.3 C
29.02.2004 04:00 -6.7 C 84 % 1009.7 hPa 0.0 l/m 1.0 km/h (0 Bft) SO -9.0 C -6.7 C
29.02.2004 05:00 -7.2 C 83 % 1010.5 hPa 0.0 l/m 0.4 km/h (0 Bft) SO -9.5 C -7.2 C
29.02.2004 06:00 -6.7 C 84 % 1010.8 hPa 0.0 l/m 0.4 km/h (0 Bft) SO -8.8 C -6.7 C
29.02.2004 07:00 -6.4 C 84 % 1011.7 hPa 0.0 l/m 2.3 km/h (1 Bft) SO -8.6 C -7.0 C
29.02.2004 08:00 -5.5 C 77 % 1012.4 hPa 0.0 l/m 0.0 km/h (0 Bft) N -8.9 C -5.5 C
29.02.2004 09:00 -4.3 C 67 % 1012.8 hPa 0.0 l/m 0.6 km/h (0 Bft) S-SO -9.5 C -4.4 C
29.02.2004 10:00 -2.9 C 59 % 1012.8 hPa 0.0 l/m 0.6 km/h (0 Bft) S-SW -9.7 C -2.9 C
29.02.2004 11:00 -0.8 C 54 % 1013.8 hPa 0.0 l/m 3.3 km/h (1 Bft) W -9.0 C -1.8 C
29.02.2004 12:00 1.4 C 47 % 1013.9 hPa 0.0 l/m 3.1 km/h (1 Bft) SO -8.6 C 0.6 C
29.02.2004 13:00 2.7 C 39 % 1013.9 hPa 0.0 l/m 7.1 km/h (2 Bft) O-SO -9.7 C 1.1 C
29.02.2004 14:00 3.5 C 37 % 1013.9 hPa 0.0 l/m 20.5 km/h (4 Bft) O-SO -10.0 C -0.8 C
29.02.2004 15:00 3.6 C 32 % 1014.2 hPa 0.0 l/m 9.2 km/h (2 Bft) O -11.6 C 1.4 C
29.02.2004 16:00 2.7 C 40 % 1014.9 hPa 0.0 l/m 9.7 km/h (2 Bft) O-SO -9.5 C 0.2 C
29.02.2004 17:00 1.7 C 38 % 1015.6 hPa 0.0 l/m 3.6 km/h (1 Bft) NO -11.2 C 0.8 C
29.02.2004 18:00 0.6 C 45 % 1016.6 hPa 0.0 l/m 1.0 km/h (0 Bft) N-NO -10.0 C 0.4 C
29.02.2004 19:00 -0.2 C 54 % 1017.6 hPa 0.0 l/m 0.2 km/h (0 Bft) NO -8.5 C -0.2 C
29.02.2004 20:00 -0.7 C 59 % 1018.3 hPa 0.0 l/m 0.1 km/h (0 Bft) NO -7.6 C -0.7 C
29.02.2004 21:00 -1.2 C 65 % 1019.1 hPa 0.0 l/m 0.3 km/h (0 Bft) N -7.0 C -1.2 C
29.02.2004 22:00 -2.1 C 67 % 1019.1 hPa 0.0 l/m 0.0 km/h (0 Bft) N -7.4 C -2.1 C
29.02.2004 23:00 -2.7 C 65 % 1020.0 hPa 0.0 l/m 0.2 km/h (0 Bft) N -8.3 C -2.7 C
Min-Datum _ 28.02.04 29.02.04 27.02.04 - 23.02.04 - 29.02.04 28.02.04
_ Min-Zeit 07:27 15:27 13:00 - 00:00 - 15:27 05:42
Minimum _ -11.3 C 25 % 999.3 hPa - 0.0 km/h (0 Bft) - -15.1 C -15.1 C
Max-Datum _ 29.02.04 23.02.04 29.02.04 23.02.04 26.02.04 - 23.02.04 29.02.04
_ Max-Zeit 15:09 00:36 23:09 05:00 15:06 - 00:00 13:48
Maximum _ 4.2 C 98 % 1020.1 hPa 3.1 l/m 31.7 km/h
W-NW (5 Bft)
- 2.1 C 3.6 C
Durchschnitt _ -3.0 C 72 % 1008.7 hPa #18.4 l/m 3.4 km/h (1 Bft) O-SO -7.7 C -4.1 C

Durchschnitt Minimum Temp.-3.7 C
Durchschnitt Maximum Temp.-2.4 C
© Kaiko 2004